Time;durP1;ratioP1;P1;durP2;ratioP2;P2;SDS_P1;SDS_P2;PMS_P1;PMS_P2;Temp;Humidity;BMP_temperature;BMP_pressure;BME280_temperature;BME280_humidity;BME280_pressure;Samples;Min_cycle;Max_cycle;Signal;HPM_P1;HPM_P2
2023/04/02 00:01:42;;;;;;;2.53;2.33;;;;;;;19.04;52.14;95780.66;10334663;28;20050;-74
2023/04/02 00:07:29;;;;;;;3.60;2.60;;;;;;;19.03;52.28;95787.16;10320917;28;20097;-74
2023/04/02 00:13:13;;;;;;;3.13;2.38;;;;;;;19.03;52.12;95793.34;10335098;28;20049;-74
2023/04/02 00:18:37;;;;;;;2.70;2.50;;;;;;;19.01;52.09;95792.91;10348805;28;20045;-74
2023/04/02 00:23:59;;;;;;;2.50;2.30;;;;;;;19.01;51.89;95801.00;10320201;28;20064;-74
2023/04/02 00:29:19;;;;;;;2.40;2.20;;;;;;;19.00;52.13;95804.84;10310174;28;20108;-74
2023/04/02 00:34:39;;;;;;;2.75;2.35;;;;;;;18.99;52.06;95797.88;10348144;28;20066;-74
2023/04/02 00:40:06;;;;;;;2.65;2.22;;;;;;;18.98;51.90;95798.25;10306082;28;20057;-73
2023/04/02 00:45:32;;;;;;;3.28;2.40;;;;;;;18.98;51.96;95804.41;10347942;28;20069;-74
2023/04/02 00:50:52;;;;;;;2.42;2.22;;;;;;;18.98;51.88;95809.03;10332952;28;20046;-73
2023/04/02 00:56:16;;;;;;;2.30;2.10;;;;;;;18.96;51.78;95806.66;10305570;28;20054;-74
2023/04/02 01:01:41;;;;;;;2.80;2.40;;;;;;;18.96;51.79;95814.75;10332922;28;20096;-74
2023/04/02 01:07:03;;;;;;;3.03;2.40;;;;;;;18.94;51.72;95815.09;10318712;28;20042;-74
2023/04/02 01:12:43;;;;;;;2.58;2.22;;;;;;;18.95;51.86;95813.19;10319164;28;20038;-73
2023/04/02 01:18:35;;;;;;;2.33;2.13;;;;;;;18.94;51.96;95815.09;10332354;28;20043;-74
2023/04/02 01:24:01;;;;;;;2.30;2.10;;;;;;;18.92;51.71;95819.28;10318374;28;20045;-74
2023/04/02 01:29:30;;;;;;;2.47;2.22;;;;;;;18.92;51.79;95821.97;10321849;28;20081;-73
2023/04/02 01:34:51;;;;;;;2.35;1.90;;;;;;;18.91;51.92;95829.28;10318113;28;20042;-74
2023/04/02 01:40:33;;;;;;;2.38;2.10;;;;;;;18.90;51.79;95835.81;10318169;28;20387;-74
2023/04/02 01:45:52;;;;;;;2.72;2.03;;;;;;;18.89;51.62;95836.94;10304466;28;20053;-73
2023/04/02 01:51:25;;;;;;;2.10;1.90;;;;;;;18.89;51.95;95845.03;10331553;28;20407;-73
2023/04/02 01:56:46;;;;;;;1.98;1.75;;;;;;;18.88;51.68;95846.16;10304623;28;20049;-73
2023/04/02 02:02:10;;;;;;;2.08;1.80;;;;;;;18.87;51.74;95844.59;10331219;28;20069;-74
2023/04/02 02:07:32;;;;;;;3.05;2.22;;;;;;;18.87;51.65;95851.91;10317960;28;20049;-74
2023/04/02 02:12:53;;;;;;;2.20;1.95;;;;;;;18.87;51.77;95860.00;10345681;28;20048;-74
2023/04/02 02:18:16;;;;;;;1.88;1.70;;;;;;;18.86;51.62;95859.22;10318514;28;20471;-73
2023/04/02 02:23:35;;;;;;;2.22;2.03;;;;;;;18.84;51.45;95860.69;10311242;28;20100;-73
2023/04/02 02:28:56;;;;;;;1.95;1.73;;;;;;;18.84;51.54;95861.47;10315849;28;20120;-73
2023/04/02 02:34:20;;;;;;;2.22;1.90;;;;;;;18.83;51.47;95867.97;10324299;28;20047;-73
2023/04/02 02:39:43;;;;;;;1.70;1.60;;;;;;;18.82;51.85;95862.91;10338050;28;20058;-73
2023/04/02 02:45:09;;;;;;;1.83;1.67;;;;;;;18.82;51.56;95879.13;10324159;28;20050;-73
2023/04/02 02:50:30;;;;;;;2.47;2.03;;;;;;;18.81;51.60;95880.25;10337383;28;20502;-73
2023/04/02 02:55:55;;;;;;;2.05;1.83;;;;;;;18.81;51.56;95885.66;10310409;28;20058;-73
2023/04/02 03:01:18;;;;;;;1.90;1.70;;;;;;;18.79;51.71;95885.94;10336930;28;20085;-73
2023/04/02 03:06:39;;;;;;;3.17;1.70;;;;;;;18.78;51.59;95889.78;10323267;28;20057;-73
2023/04/02 03:12:15;;;;;;;1.95;1.70;;;;;;;18.80;51.62;95897.56;10323066;28;20046;-73
2023/04/02 03:18:02;;;;;;;2.15;1.60;;;;;;;18.78;51.70;95906.75;10336430;28;20034;-73
2023/04/02 03:23:55;;;;;;;1.77;1.67;;;;;;;18.76;51.51;95909.00;10322828;28;20475;-74
2023/04/02 03:29:18;;;;;;;1.60;1.50;;;;;;;18.75;51.82;95904.72;10293499;28;20062;-74
2023/04/02 03:34:43;;;;;;;1.67;1.52;;;;;;;18.75;51.46;95915.53;10322143;28;20070;-74
2023/04/02 03:40:18;;;;;;;1.83;1.60;;;;;;;18.74;51.41;95922.06;10322049;28;20062;-74
2023/04/02 03:45:44;;;;;;;1.70;1.60;;;;;;;18.74;51.41;95932.06;10321731;28;20054;-73
2023/04/02 03:51:12;;;;;;;1.55;1.45;;;;;;;18.71;51.43;95938.91;10321433;28;20046;-73
2023/04/02 03:56:38;;;;;;;1.50;1.40;;;;;;;18.72;51.25;95943.19;10334948;28;20408;-74
2023/04/02 04:02:09;;;;;;;1.63;1.40;;;;;;;18.72;51.12;95945.91;10334593;28;20046;-73
2023/04/02 04:07:33;;;;;;;1.60;1.50;;;;;;;18.70;51.24;95953.56;10349086;28;20125;-73
2023/04/02 04:12:55;;;;;;;1.60;1.50;;;;;;;18.71;51.18;95960.50;10334178;28;20487;-73
2023/04/02 04:18:37;;;;;;;1.95;1.63;;;;;;;18.70;51.41;95967.03;10320675;28;20104;-74
2023/04/02 04:24:04;;;;;;;1.73;1.63;;;;;;;18.69;51.19;95978.94;10307886;28;20042;-73
2023/04/02 04:29:44;;;;;;;1.60;1.50;;;;;;;18.68;51.33;95992.75;10323322;28;20061;-73
2023/04/02 04:35:35;;;;;;;1.75;1.40;;;;;;;18.67;51.27;95997.38;10333315;28;20042;-73
2023/04/02 04:41:04;;;;;;;1.35;1.25;;;;;;;18.67;51.26;96010.09;10289316;28;20137;-73
2023/04/02 04:46:32;;;;;;;1.58;1.38;;;;;;;18.66;51.45;96014.69;10293231;28;20050;-74
2023/04/02 04:51:54;;;;;;;1.52;1.42;;;;;;;18.66;51.23;96033.59;10319256;28;20542;-73
2023/04/02 04:57:28;;;;;;;1.30;1.20;;;;;;;18.65;51.30;96040.09;10332706;28;20050;-73
2023/04/02 05:03:17;;;;;;;1.50;1.40;;;;;;;18.65;51.20;96047.41;10318989;28;20046;-73
2023/04/02 05:08:40;;;;;;;1.60;1.48;;;;;;;18.64;51.09;96057.41;10283888;28;20065;-73
2023/04/02 05:14:04;;;;;;;1.52;1.40;;;;;;;18.63;51.29;96063.94;10332223;28;20042;-73
2023/04/02 05:19:33;;;;;;;1.63;1.50;;;;;;;18.62;51.11;96075.84;10318531;28;20049;-73
2023/04/02 05:25:06;;;;;;;1.50;1.35;;;;;;;18.62;51.28;96085.84;10317559;28;20388;-73
2023/04/02 05:30:31;;;;;;;1.40;1.30;;;;;;;18.61;51.16;96101.25;10305649;28;20059;-73
2023/04/02 05:35:58;;;;;;;1.50;1.40;;;;;;;18.61;51.06;96112.03;10291795;28;20470;-74
2023/04/02 05:41:31;;;;;;;2.13;1.23;;;;;;;18.60;51.04;96105.03;10318245;28;20042;-77
2023/04/02 05:47:06;;;;;;;1.30;1.20;;;;;;;18.59;51.02;96133.16;10319321;28;20476;-76
2023/04/02 05:52:31;;;;;;;1.30;1.20;;;;;;;18.59;51.01;96135.84;10318062;28;20042;-73
2023/04/02 05:57:54;;;;;;;1.20;1.10;;;;;;;18.60;51.08;96142.03;10312897;28;20069;-74
2023/04/02 06:03:31;;;;;;;1.30;1.20;;;;;;;18.62;50.98;96153.28;10339593;28;20121;-73
2023/04/02 06:08:56;;;;;;;0.90;0.90;;;;;;;18.61;51.03;96160.59;10325605;28;20050;-73
2023/04/02 06:14:16;;;;;;;1.27;1.17;;;;;;;18.63;50.97;96171.06;10325307;28;20057;-73
2023/04/02 06:19:38;;;;;;;1.40;1.30;;;;;;;18.63;50.99;96179.16;10325622;28;20042;-73
2023/04/02 06:25:03;;;;;;;1.60;1.30;;;;;;;18.64;50.81;96183.41;10324931;28;20051;-73
2023/04/02 06:30:34;;;;;;;1.38;1.27;;;;;;;18.66;50.83;96198.16;10312602;28;20545;-73
2023/04/02 06:35:55;;;;;;;1.17;1.08;;;;;;;18.67;50.90;96220.53;10324389;28;20491;-73
2023/04/02 06:41:21;;;;;;;1.30;1.20;;;;;;;18.68;50.90;96228.28;10337813;28;20038;-74
2023/04/02 06:47:10;;;;;;;1.15;1.05;;;;;;;18.70;50.91;96244.94;10326794;28;20058;-73
2023/04/02 06:52:45;;;;;;;1.33;1.10;;;;;;;18.71;50.76;96260.00;10337577;28;20093;-73
2023/04/02 06:58:05;;;;;;;5.13;1.20;;;;;;;18.75;50.83;96273.63;10310399;28;20050;-73
2023/04/02 07:03:27;;;;;;;1.70;1.00;;;;;;;18.77;50.28;96279.47;10337072;28;20043;-74
2023/04/02 07:08:49;;;;;;;1.70;1.27;;;;;;;18.80;50.64;96291.53;10309319;28;20046;-73
2023/04/02 07:14:11;;;;;;;1.58;1.10;;;;;;;18.81;50.85;96299.31;10309917;28;20043;-77
2023/04/02 07:19:32;;;;;;;1.10;1.00;;;;;;;18.84;50.71;96319.47;10322885;28;20049;-77
2023/04/02 07:24:52;;;;;;;1.30;1.08;;;;;;;18.86;50.75;96328.00;10350837;28;20051;-77
2023/04/02 07:30:12;;;;;;;1.10;0.93;;;;;;;18.88;50.65;96340.06;10323825;28;20046;-76
2023/04/02 07:35:32;;;;;;;1.27;0.90;;;;;;;18.90;50.74;96347.81;10322234;28;20042;-76
2023/04/02 07:40:52;;;;;;;1.13;1.02;;;;;;;18.92;50.73;96356.38;10350361;28;20483;-76
2023/04/02 07:46:15;;;;;;;1.00;0.90;;;;;;;18.96;50.58;96370.78;10335581;28;20050;-76
2023/04/02 07:51:35;;;;;;;0.95;0.80;;;;;;;18.97;50.45;96383.16;10321965;28;20048;-76
2023/04/02 07:56:55;;;;;;;1.42;1.20;;;;;;;19.00;50.64;96393.31;10335266;28;20042;-77
2023/04/02 08:02:20;;;;;;;1.42;1.10;;;;;;;19.03;50.56;96399.94;10334977;28;20057;-76
2023/04/02 08:07:40;;;;;;;1.38;0.95;;;;;;;19.04;50.42;96415.81;10321088;28;20050;-76
2023/04/02 08:13:00;;;;;;;3.72;1.00;;;;;;;19.08;50.53;96427.53;10321609;28;20140;-75
2023/04/02 08:18:22;;;;;;;0.98;0.88;;;;;;;19.10;50.67;96436.09;10333946;28;20065;-76
2023/04/02 08:23:42;;;;;;;1.10;1.00;;;;;;;19.14;50.50;96447.81;10306407;28;20533;-73
2023/04/02 08:29:02;;;;;;;1.42;1.17;;;;;;;19.19;50.51;96456.84;10324595;28;20060;-72
2023/04/02 08:34:21;;;;;;;2.35;0.90;;;;;;;19.21;50.56;96474.31;10348390;28;20038;-73
2023/04/02 08:39:41;;;;;;;1.00;0.90;;;;;;;19.25;50.50;96485.22;10348172;28;20041;-73
2023/04/02 08:45:20;;;;;;;0.80;0.80;;;;;;;19.27;50.48;96488.41;10319682;28;20060;-73
2023/04/02 08:50:42;;;;;;;1.05;0.95;;;;;;;19.31;50.32;96505.53;10347795;28;20050;-73
2023/04/02 08:56:16;;;;;;;0.73;0.73;;;;;;;19.34;50.53;96510.25;10319409;28;20505;-73
2023/04/02 09:02:01;;;;;;;1.10;1.00;;;;;;;19.38;50.82;96513.09;10347216;28;20096;-73
2023/04/02 09:07:21;;;;;;;0.90;0.73;;;;;;;19.41;50.66;96525.94;10318486;28;20100;-73
2023/04/02 09:12:42;;;;;;;2.58;0.77;;;;;;;19.44;50.67;96536.88;10305362;28;20046;-73
2023/04/02 09:18:18;;;;;;;2.08;0.95;;;;;;;19.48;50.86;96543.22;10332047;28;20050;-73
2023/04/02 09:23:38;;;;;;;1.35;0.82;;;;;;;19.51;50.74;96553.34;10347023;28;20545;-73
2023/04/02 09:29:19;;;;;;;1.00;0.90;;;;;;;19.55;50.84;96565.06;10308757;28;20054;-73
2023/04/02 09:34:39;;;;;;;1.67;0.90;;;;;;;19.59;50.90;96575.25;10331566;28;20038;-73
2023/04/02 09:40:30;;;;;;;3.92;0.85;;;;;;;19.62;50.47;96585.38;10331809;28;20522;-73
2023/04/02 09:46:04;;;;;;;5.60;0.90;;;;;;;19.64;50.79;96594.75;10314106;28;20065;-75
2023/04/02 09:51:26;;;;;;;1.42;0.82;;;;;;;19.68;50.18;96601.09;10331855;28;20537;-77
2023/04/02 09:57:01;;;;;;;2.20;0.90;;;;;;;19.71;49.88;96600.44;10331700;28;20042;-77
2023/04/02 10:02:23;;;;;;;1.27;0.90;;;;;;;19.74;49.89;96626.03;10304698;28;20053;-78
2023/04/02 10:07:47;;;;;;;1.20;1.00;;;;;;;19.77;49.63;96621.88;10346101;28;20081;-77
2023/04/02 10:13:17;;;;;;;1.15;0.75;;;;;;;19.81;49.28;96637.09;10331539;28;20157;-77
2023/04/02 10:19:01;;;;;;;1.88;0.77;;;;;;;19.83;49.09;96637.56;10317576;28;20415;-77
2023/04/02 10:24:21;;;;;;;2.63;0.90;;;;;;;19.86;49.05;96665.84;10345738;28;20483;-77
2023/04/02 10:30:04;;;;;;;2.92;0.90;;;;;;;19.89;48.71;96665.19;10306610;28;20042;-78
2023/04/02 10:35:42;;;;;;;1.63;0.90;;;;;;;19.91;48.45;96647.50;10330454;28;20073;-77
2023/04/02 10:41:39;;;;;;;1.88;0.80;;;;;;;19.93;48.48;96683.13;10333855;28;20045;-76
2023/04/02 10:47:21;;;;;;;1.70;1.40;;;;;;;19.92;42.48;96692.34;10337485;28;20047;-76
2023/04/02 10:52:55;;;;;;;2.42;1.40;;;;;;;19.87;45.12;96695.25;10337333;28;20042;-76
2023/04/02 10:58:25;;;;;;;2.08;1.23;;;;;;;19.91;46.48;96703.50;10323450;28;20089;-75
2023/04/02 11:04:01;;;;;;;1.58;1.35;;;;;;;19.94;47.65;96714.44;10323332;28;20042;-76
2023/04/02 11:09:24;;;;;;;2.85;2.40;;;;;;;19.99;49.33;96720.78;10310068;28;20509;-76
2023/04/02 11:14:43;;;;;;;3.67;1.35;;;;;;;20.02;50.15;96728.25;10336445;28;20050;-77
2023/04/02 11:20:42;;;;;;;2.47;1.63;;;;;;;20.04;51.19;96744.94;10351198;28;20086;-77
2023/04/02 11:26:20;;;;;;;;;;;;;;;20.05;52.43;96749.22;10335498;28;20062;-77
2023/04/02 11:31:41;;;;;;;1.58;1.48;;;;;;;19.98;48.92;96765.19;10322579;28;19988;-79
2023/04/02 11:37:02;;;;;;;2.22;1.63;;;;;;;20.03;51.28;96778.50;10350609;28;20042;-78
2023/04/02 11:42:26;;;;;;;4.70;2.00;;;;;;;20.05;51.71;96787.06;10336179;28;20077;-75
2023/04/02 11:47:58;;;;;;;3.25;1.58;;;;;;;20.07;52.17;96795.63;10319354;28;20506;-76
2023/04/02 11:53:25;;;;;;;3.47;2.10;;;;;;;20.11;51.93;96812.78;10334339;28;20109;-77
2023/04/02 11:58:59;;;;;;;3.42;2.20;;;;;;;20.10;51.65;96812.00;10335060;28;20513;-76
2023/04/02 12:04:46;;;;;;;2.60;1.73;;;;;;;20.10;49.13;96817.41;10334715;28;20046;-76
2023/04/02 12:10:23;;;;;;;2.28;2.00;;;;;;;19.43;37.10;96832.47;10349241;28;20053;-79
2023/04/02 12:15:47;;;;;;;2.00;1.80;;;;;;;19.40;42.20;96835.81;10320645;28;20042;-76
2023/04/02 12:21:14;;;;;;;2.30;1.70;;;;;;;19.62;44.01;96834.81;10333899;28;20077;-76
2023/04/02 12:26:41;;;;;;;2.50;1.80;;;;;;;19.73;44.08;96846.84;10317639;28;20058;-76
2023/04/02 12:32:02;;;;;;;1.60;1.50;;;;;;;19.82;44.34;96854.16;10334651;28;20042;-76
2023/04/02 12:37:27;;;;;;;3.90;1.65;;;;;;;19.85;44.60;96854.28;10320058;28;20042;-77
2023/04/02 12:42:47;;;;;;;2.92;1.83;;;;;;;19.86;44.82;96855.88;10319682;28;20042;-77
2023/04/02 12:48:09;;;;;;;2.70;1.50;;;;;;;19.90;44.86;96874.94;10333012;28;20062;-77
2023/04/02 12:53:35;;;;;;;2.58;1.55;;;;;;;19.90;45.12;96877.66;10333160;28;20039;-77
2023/04/02 12:59:00;;;;;;;2.47;1.90;;;;;;;19.86;42.33;96888.31;10319378;28;20085;-76
2023/04/02 13:04:20;;;;;;;2.20;1.75;;;;;;;19.86;44.10;96891.03;10331855;28;20089;-77
2023/04/02 13:09:47;;;;;;;2.95;1.77;;;;;;;19.87;44.75;96889.09;10305751;28;20054;-77
2023/04/02 13:15:23;;;;;;;3.15;1.58;;;;;;;19.86;44.92;96898.34;10332921;28;20097;-77
2023/04/02 13:20:57;;;;;;;2.15;1.98;;;;;;;19.83;42.15;96907.88;10332568;28;20483;-77
2023/04/02 13:26:18;;;;;;;2.22;1.70;;;;;;;19.84;44.67;96912.19;10345659;28;20050;-76
2023/04/02 13:31:37;;;;;;;2.25;1.65;;;;;;;19.84;45.03;96911.41;10318963;28;20450;-76
2023/04/02 13:36:57;;;;;;;1.90;1.50;;;;;;;19.85;45.19;96923.78;10318412;28;20038;-78
2023/04/02 13:42:16;;;;;;;2.22;1.80;;;;;;;19.84;45.66;96933.81;10331896;28;20517;-78
2023/04/02 13:47:36;;;;;;;2.60;1.52;;;;;;;19.85;45.96;96934.59;10332032;28;20050;-77
2023/04/02 13:52:59;;;;;;;1.60;1.40;;;;;;;19.85;46.27;96940.78;10331964;28;20491;-76
2023/04/02 13:58:18;;;;;;;1.70;1.60;;;;;;;19.85;46.60;96948.91;10331738;28;20042;-75
2023/04/02 14:03:39;;;;;;;2.45;1.70;;;;;;;19.85;46.77;96962.41;10331629;28;20450;-76
2023/04/02 14:09:14;;;;;;;1.88;1.48;;;;;;;19.85;47.16;96964.34;10304275;28;20053;-76
2023/04/02 14:14:45;;;;;;;1.90;1.67;;;;;;;19.84;47.19;96977.06;10332887;28;20039;-76
2023/04/02 14:20:14;;;;;;;3.58;1.60;;;;;;;19.84;47.38;96976.28;10353829;28;20043;-75
2023/04/02 14:25:52;;;;;;;2.28;1.40;;;;;;;19.82;47.33;96979.31;10338685;28;20053;-75
2023/04/02 14:31:17;;;;;;;3.70;1.70;;;;;;;19.92;48.85;96989.78;10353096;28;20506;-79
2023/04/02 14:36:57;;;;;;;2.75;1.08;;;;;;;19.83;48.79;96991.69;10338889;28;20038;-73
2023/04/02 14:42:49;;;;;;;6.20;1.98;;;;;;;19.81;49.23;97004.72;10324742;28;20434;-76
2023/04/02 14:48:35;;;;;;;5.95;1.70;;;;;;;19.79;49.44;97000.78;10310425;28;20061;-76
2023/04/02 14:54:22;;;;;;;5.38;1.77;;;;;;;19.78;49.51;97005.38;10338785;28;20034;-76
2023/04/02 14:59:52;;;;;;;11.27;2.22;;;;;;;19.75;49.76;97012.22;10352142;28;20487;-76
2023/04/02 15:05:18;;;;;;;3.35;1.80;;;;;;;19.74;49.76;97012.56;10323752;28;20069;-75
2023/04/02 15:10:55;;;;;;;2.47;1.63;;;;;;;19.73;49.67;97022.56;10337055;28;20042;-75
2023/04/02 15:16:20;;;;;;;4.28;1.70;;;;;;;19.72;49.71;97026.38;10336541;28;20407;-76
2023/04/02 15:22:01;;;;;;;1.88;1.20;;;;;;;19.71;48.20;97037.47;10309360;28;20046;-75
2023/04/02 15:27:51;;;;;;;4.90;1.40;;;;;;;19.70;49.31;97055.59;10331299;28;20081;-78
2023/04/02 15:33:29;;;;;;;5.25;2.05;;;;;;;19.70;49.71;97052.13;10323104;28;20391;-76
2023/04/02 15:39:30;;;;;;;4.65;1.50;;;;;;;19.71;49.68;97059.09;10336079;28;20038;-76
2023/04/02 15:45:11;;;;;;;3.25;1.50;;;;;;;19.69;50.17;97067.53;10350556;28;20046;-77
2023/04/02 15:50:40;;;;;;;10.38;1.35;;;;;;;19.73;50.93;97089.34;10350510;28;20043;-74
2023/04/02 15:56:21;;;;;;;4.05;1.60;;;;;;;19.74;50.70;97091.72;10335727;28;20064;-73
2023/04/02 16:01:55;;;;;;;5.88;1.58;;;;;;;19.75;50.70;97101.41;10334861;28;20052;-73
2023/04/02 16:07:24;;;;;;;4.50;1.85;;;;;;;19.76;50.76;97110.34;10321270;28;20082;-73
2023/04/02 16:12:43;;;;;;;3.80;1.50;;;;;;;19.74;50.69;97110.66;10349415;28;20047;-72
2023/04/02 16:18:10;;;;;;;7.47;1.42;;;;;;;19.74;50.67;97115.28;10321002;28;20089;-72
2023/04/02 16:23:38;;;;;;;5.50;1.70;;;;;;;19.71;50.41;97123.97;10334225;28;20049;-72
2023/04/02 16:29:05;;;;;;;6.63;1.67;;;;;;;19.71;50.47;97137.50;10325057;28;20058;-73
2023/04/02 16:34:51;;;;;;;2.47;1.40;;;;;;;19.70;50.45;97130.50;10333901;28;20049;-72
2023/04/02 16:40:33;;;;;;;3.28;1.30;;;;;;;19.70;50.55;97142.09;10348158;28;20050;-73
2023/04/02 16:45:58;;;;;;;3.53;1.55;;;;;;;19.70;50.52;97146.72;10347808;28;20058;-73
2023/04/02 16:51:37;;;;;;;3.40;1.40;;;;;;;19.69;50.41;97159.41;10333151;28;20042;-73
2023/04/02 16:56:57;;;;;;;;;;;;;;;19.66;50.37;97154.66;10319722;28;20061;-72
2023/04/02 17:02:31;;;;;;;2.05;1.20;;;;;;;19.65;50.26;97163.09;10347362;28;19925;-72
2023/04/02 17:08:12;;;;;;;5.75;1.27;;;;;;;19.64;50.44;97167.69;10347358;28;20053;-73
2023/04/02 17:13:39;;;;;;;1.20;1.10;;;;;;;19.64;50.57;97178.50;10332442;28;20038;-73
2023/04/02 17:19:00;;;;;;;1.92;1.20;;;;;;;19.62;50.61;97183.44;10318612;28;20046;-73
2023/04/02 17:24:24;;;;;;;2.30;1.45;;;;;;;19.61;50.84;97195.34;10346933;28;20042;-73
2023/04/02 17:29:48;;;;;;;3.08;1.40;;;;;;;19.62;50.80;97198.84;10335887;28;20055;-72
2023/04/02 17:35:21;;;;;;;1.90;1.15;;;;;;;19.60;50.77;97203.75;10332051;28;20053;-73
2023/04/02 17:41:00;;;;;;;3.58;1.60;;;;;;;19.28;44.22;97208.44;10331891;28;20403;-73
2023/04/02 17:46:47;;;;;;;5.03;1.65;;;;;;;19.38;48.24;97213.53;10346386;28;20406;-74
2023/04/02 17:52:13;;;;;;;2.13;1.40;;;;;;;19.45;48.71;97223.91;10352331;28;20046;-73
2023/04/02 17:58:14;;;;;;;2.08;1.30;;;;;;;19.49;49.24;97238.41;10354291;28;20446;-73
2023/04/02 18:03:46;;;;;;;5.20;1.58;;;;;;;19.50;49.27;97232.69;10300846;28;20085;-72
2023/04/02 18:09:38;;;;;;;3.00;1.55;;;;;;;19.50;49.33;97251.59;10353991;28;20117;-73
2023/04/02 18:15:23;;;;;;;4.05;1.45;;;;;;;19.50;49.54;97253.47;10325692;28;20380;-73
2023/04/02 18:20:58;;;;;;;3.50;1.40;;;;;;;19.51;49.57;97261.28;10325289;28;20431;-73
2023/04/02 18:27:00;;;;;;;3.42;1.50;;;;;;;19.50;49.60;97261.59;10336933;28;20053;-73
2023/04/02 18:32:26;;;;;;;4.13;1.40;;;;;;;19.50;49.54;97277.81;10299871;28;20054;-73
2023/04/02 18:38:06;;;;;;;1.80;1.25;;;;;;;19.50;49.52;97285.91;10338424;28;20042;-74
2023/04/02 18:43:47;;;;;;;1.88;1.45;;;;;;;19.48;49.73;97299.75;10339297;28;20450;-73
2023/04/02 18:49:19;;;;;;;3.75;1.20;;;;;;;19.47;49.88;97297.34;10337755;28;20054;-73
2023/04/02 18:54:45;;;;;;;2.67;1.33;;;;;;;19.46;50.15;97301.94;10324425;28;20454;-73
2023/04/02 19:00:14;;;;;;;2.58;1.35;;;;;;;19.46;50.36;97311.97;10337594;28;20162;-73
2023/04/02 19:05:34;;;;;;;2.65;1.45;;;;;;;19.45;50.54;97313.88;10351931;28;20046;-75
2023/04/02 19:10:58;;;;;;;2.67;1.30;;;;;;;19.46;50.77;97317.38;10351633;28;20093;-73
2023/04/02 19:16:47;;;;;;;8.68;1.50;;;;;;;19.44;50.76;97327.69;10336602;28;20050;-74
2023/04/02 19:22:15;;;;;;;2.65;1.48;;;;;;;19.43;50.94;97334.22;10337835;28;20101;-72
2023/04/02 19:27:57;;;;;;;;;;;;;;;19.42;50.98;97340.72;10309763;28;20419;-73
2023/04/02 19:33:37;;;;;;;1.95;1.40;;;;;;;19.40;51.03;97341.00;10336250;28;20278;-73
2023/04/02 19:39:40;;;;;;;3.72;1.30;;;;;;;19.41;51.25;97348.03;10335909;28;20519;-73
2023/04/02 19:45:00;;;;;;;3.08;1.23;;;;;;;19.40;51.26;97348.34;10306497;28;20466;-73
2023/04/02 19:50:20;;;;;;;2.00;1.30;;;;;;;19.37;51.16;97352.47;10335486;28;20042;-73
2023/04/02 19:55:40;;;;;;;1.65;1.33;;;;;;;19.38;51.39;97356.75;10335133;28;20042;-73
2023/04/02 20:01:00;;;;;;;2.38;1.40;;;;;;;19.37;51.44;97365.97;10321579;28;20388;-72
2023/04/02 20:06:20;;;;;;;1.75;1.23;;;;;;;19.36;51.57;97364.34;10321367;28;20042;-73
2023/04/02 20:11:40;;;;;;;4.60;1.30;;;;;;;19.36;51.68;97361.66;10348843;28;20046;-74
2023/04/02 20:17:00;;;;;;;1.83;1.10;;;;;;;19.37;51.72;97368.66;10334655;28;20046;-74
2023/04/02 20:22:19;;;;;;;6.97;1.50;;;;;;;19.28;48.21;97365.91;10321052;28;20506;-73
2023/04/02 20:27:40;;;;;;;1.95;1.20;;;;;;;19.31;50.38;97378.81;10328798;28;20058;-73
2023/04/02 20:32:59;;;;;;;2.60;1.50;;;;;;;19.31;50.98;97386.13;10333954;28;20034;-73
2023/04/02 20:38:19;;;;;;;2.63;1.30;;;;;;;19.32;50.94;97393.88;10333606;28;20042;-73
2023/04/02 20:43:41;;;;;;;2.15;1.20;;;;;;;19.32;51.00;97401.22;10333488;28;20039;-74
2023/04/02 20:49:01;;;;;;;2.58;1.30;;;;;;;19.32;50.91;97409.31;10333530;28;20042;-73
2023/04/02 20:54:20;;;;;;;3.30;1.33;;;;;;;19.31;51.13;97418.53;10333105;28;20100;-73
2023/04/02 20:59:40;;;;;;;2.03;1.50;;;;;;;19.30;51.30;97416.94;10319157;28;20042;-73
2023/04/02 21:05:00;;;;;;;2.67;1.40;;;;;;;19.30;51.18;97422.31;10347275;28;20056;-73
2023/04/02 21:10:20;;;;;;;3.25;1.30;;;;;;;19.29;51.22;97418.84;10319055;28;20046;-73
2023/04/02 21:15:43;;;;;;;1.35;1.10;;;;;;;19.28;51.13;97419.94;10332648;28;20042;-74
2023/04/02 21:21:04;;;;;;;1.75;1.40;;;;;;;19.28;51.24;97419.94;10332388;28;20403;-73
2023/04/02 21:26:25;;;;;;;2.95;1.10;;;;;;;19.26;51.26;97422.13;10329499;28;20454;-75
2023/04/02 21:31:45;;;;;;;3.22;1.67;;;;;;;19.26;51.02;97422.13;10319136;28;20045;-82
2023/04/02 21:37:05;;;;;;;1.45;1.05;;;;;;;19.26;50.86;97427.53;10318465;28;20042;-82
2023/04/02 21:42:25;;;;;;;1.00;0.90;;;;;;;19.24;50.78;97426.25;10318025;28;20038;-82
2023/04/02 21:47:44;;;;;;;3.88;1.17;;;;;;;19.24;50.82;97423.56;10305452;28;20129;-82
2023/04/02 21:53:04;;;;;;;1.60;1.10;;;;;;;19.21;50.93;97424.16;10331577;28;20042;-74
2023/04/02 21:58:24;;;;;;;1.65;1.10;;;;;;;19.21;50.92;97430.38;10331493;28;20039;-74
2023/04/02 22:03:43;;;;;;;1.90;1.20;;;;;;;19.20;50.77;97430.69;10317830;28;20038;-75
2023/04/02 22:09:06;;;;;;;1.63;1.10;;;;;;;19.17;50.90;97424.78;10304439;28;20542;-75
2023/04/02 22:14:26;;;;;;;2.05;1.20;;;;;;;19.17;50.60;97430.19;10331361;28;20069;-74
2023/04/02 22:19:46;;;;;;;1.77;1.08;;;;;;;19.16;50.73;97438.59;10331191;28;20046;-74
2023/04/02 22:25:06;;;;;;;1.05;0.95;;;;;;;19.15;50.71;97437.81;10345720;28;20043;-75
2023/04/02 22:30:28;;;;;;;1.60;1.00;;;;;;;19.15;50.61;97445.91;10304514;28;20069;-74
2023/04/02 22:35:50;;;;;;;1.02;0.90;;;;;;;19.15;50.62;97453.19;10333267;28;20042;-75
2023/04/02 22:41:20;;;;;;;2.40;0.98;;;;;;;19.12;50.51;97451.91;10338328;28;20466;-74
2023/04/02 22:46:40;;;;;;;1.55;1.00;;;;;;;19.11;50.59;97446.81;10311177;28;20046;-74
2023/04/02 22:52:00;;;;;;;1.75;1.08;;;;;;;19.10;50.34;97443.31;10338109;28;20042;-74
2023/04/02 22:57:20;;;;;;;1.40;0.90;;;;;;;19.09;50.29;97455.22;10310236;28;20042;-74
2023/04/02 23:02:40;;;;;;;1.45;0.95;;;;;;;19.08;50.48;97461.72;10337471;28;20053;-74
2023/04/02 23:07:59;;;;;;;1.67;1.00;;;;;;;19.07;50.39;97454.75;10337234;28;20038;-74
2023/04/02 23:13:19;;;;;;;1.90;0.95;;;;;;;19.07;50.34;97457.44;10336992;28;20046;-74
2023/04/02 23:18:40;;;;;;;1.38;1.20;;;;;;;19.05;50.28;97458.81;10323440;28;20046;-74
2023/04/02 23:23:59;;;;;;;1.27;1.05;;;;;;;19.04;50.41;97458.03;10322892;28;20053;-74
2023/04/02 23:29:19;;;;;;;1.15;1.00;;;;;;;19.03;50.40;97456.41;10341239;28;20506;-74
2023/04/02 23:34:38;;;;;;;1.00;0.90;;;;;;;19.02;50.30;97452.13;10322497;28;20047;-74
2023/04/02 23:39:58;;;;;;;2.05;0.82;;;;;;;19.01;50.36;97458.63;10335905;28;20042;-74
2023/04/02 23:45:17;;;;;;;2.03;0.90;;;;;;;19.01;50.29;97452.44;10335662;28;20411;-74
2023/04/02 23:50:38;;;;;;;1.60;0.82;;;;;;;19.00;50.13;97454.34;10336398;28;20456;-74
2023/04/02 23:55:58;;;;;;;1.20;0.98;;;;;;;19.00;50.07;97448.94;10321753;28;20042;-74
